Observations for SYDNEY INTL AIRPORT, Australia (YSSY)

YSSY 152000Z 13004KT CAVOK 12/05 Q1009 FM2000 MOD TURB BLW 5000FT   
YSSY 151930Z 17006KT 110V200 CAVOK 12/04 Q1008 FM1930 MOD TURB BLW 5000FT   
YSSY 151900Z 28005KT 240V300 CAVOK 15/01 Q1008 FM1900 MOD TURB BLW 5000FT   
YSSY 151830Z 22006KT 170V230 CAVOK 14/07 Q1008 FM1830 MOD TURB BLW 5000FT   
YSSY 151800Z 21005KT CAVOK 15/05 Q1007 FM1800 MOD TURB BLW 5000FT   
YSSY 151730Z 32005KT CAVOK 16/M03 Q1007 FM1730 MOD/SEV TURB BLW 5000FT TILL 1800 FM1800 MOD TURB BLW 5000FT 
YSSY 151700Z 36008KT CAVOK 16/M04 Q1007 FM1700 MOD/SEV TURB BLW 5000FT TILL 1800 FM1800 MOD TURB BLW 5000FT 
YSSY 151630Z 36008KT CAVOK 17/M04 Q1007 FM1630 MOD/SEV TURB BLW 5000FT TILL 1800 FM1800 MOD TURB BLW 5000FT 
YSSY 151600Z 01007KT CAVOK 17/M03 Q1007 FM1600 MOD/SEV TURB BLW 5000FT TILL 1800 FM1800 MOD TURB BLW 5000FT 
YSSY 151530Z 05011KT CAVOK 17/M04 Q1008 FM1530 MOD/SEV TURB BLW 5000FT TILL 1800 FM1800 MOD TURB BLW 5000FT 
YSSY 151500Z 03008KT CAVOK 18/M04 Q1008 FM1500 MOD/SEV TURB BLW 5000FT  
YSSY 151430Z 33011KT CAVOK 19/M05 Q1008 FM1430 MOD/SEV TURB BLW 5000FT  
YSSY 151400Z 35010KT CAVOK 19/M05 Q1008 FM1400 MOD/SEV TURB BLW 5000FT  
YSSY 151330Z 35012KT CAVOK 19/M05 Q1008 FM1330 MOD/SEV TURB BLW 5000FT  
YSSY 151300Z 35013KT CAVOK 19/M05 Q1008 FM1300 MOD/SEV TURB BLW 5000FT  
YSSY 151230Z 34013KT CAVOK 20/M05 Q1008 FM1230 MOD/SEV TURB BLW 5000FT  
YSSY 151200Z 35011KT CAVOK 20/M05 Q1008 FM1200 MOD/SEV TURB BLW 5000FT  
YSSY 151130Z 34012KT CAVOK 20/M06 Q1009 FM1130 MOD/SEV TURB BLW 5000FT  
YSSY 151100Z 33012KT CAVOK 21/M05 Q1009 FM1100 MOD/SEV TURB BLW 5000FT  
YSSY 151030Z 33015KT CAVOK 21/M04 Q1009 
YSSY 151000Z 34013KT CAVOK 21/M04 Q1009 FM1000 MOD/SEV TURB BLW 5000FT  
YSSY 150930Z 33012KT CAVOK 21/M04 Q1009 FM0930 MOD/SEV TURB BLW 5000FT  
YSSY 150900Z 31017G27KT CAVOK 22/M05 Q1008  
YSSY 150900Z 31017G27KT CAVOK 22/M05 Q1008
YSSY 150900Z 31017G27KT CAVOK 22/M05 Q1008 FM0930 31012KT CAVOK FM0900 MOD/SEV TURB BLW 5000FT
YSSY 150830Z 31019KT CAVOK 22/M06 Q1008 FM0930 31012KT CAVOK FM0830 MOD/SEV TURB BLW 5000FT 
YSSY 150800Z 31023KT CAVOK 23/M06 Q1008 FM0900 31012KT CAVOK FM0800 MOD/SEV TURB BLW 5000FT 
YSSY 150736Z 31018G28KT CAVOK 23/M07 Q1008
YSSY 150736Z 31018G28KT CAVOK 23/M07 Q1008 FM0830 31012KT CAVOK FM0736 MOD/SEV TURB BLW 5000FT
YSSY 150700Z 30023KT CAVOK 24/M06 Q1007 FM0800 31015KT CAVOK FM0700 MOD/SEV TURB BLW 5000FT 
YSSY 150630Z 31022G32KT CAVOK 24/M07 Q1007 FM0800 31015KT CAVOK FM0630 MOD/SEV TURB BLW 5000FT  
YSSY 150628Z 31022G32KT CAVOK 25/M07 Q1007
YSSY 150630Z 31022G32KT CAVOK 24/M07 Q1007
YSSY 150630Z 31022G32KT CAVOK 24/M07 Q1007 FM0800 31015KT CAVOK FM0630 MOD/SEV TURB BLW 5000FT
YSSY 150600Z 30027KT CAVOK 25/M07 Q1007 FM0800 31015KT CAVOK FM0600 MOD/SEV TURB BLW 5000FT 
YSSY 150531Z 30026G37KT CAVOK 25/M06 Q1007
YSSY 150530Z 30026KT CAVOK 26/M06 Q1008 FM0800 31015KT CAVOK FM0530 MOD/SEV TURB BLW 5000FT 
YSSY 150514Z 30027G37KT CAVOK 25/M07 Q1007
YSSY 150514Z 30027G37KT CAVOK 25/M07 Q1007 FM0514 MOD/SEV TURB BLW 5000FT
YSSY 150500Z 30025KT CAVOK 25/M06 Q1007 FM0500 MOD/SEV TURB BLW 5000FT  
YSSY 150433Z 30027G37KT CAVOK 25/M06 Q1007
YSSY 150430Z 30027KT CAVOK 26/M06 Q1007 FM0430 MOD/SEV TURB BLW 5000FT  
YSSY 150408Z 30027G39KT CAVOK 26/M06 Q1008
YSSY 150408Z 30027G39KT CAVOK 26/M06 Q1008 FM0408 MOD/SEV TURB BLW 5000FT
YSSY 150400Z 30024KT CAVOK 26/M05 Q1008 FM0400 MOD/SEV TURB BLW 5000FT  
YSSY 150330Z 31023G35KT CAVOK 25/M06 Q1008 FM0330 MOD/SEV TURB BLW 5000FT   
YSSY 150330Z 31023G35KT CAVOK 25/M06 Q1008
YSSY 150330Z 31023G35KT CAVOK 25/M06 Q1008 FM0330 MOD/SEV TURB BLW 5000FT
YSSY 150315Z 32021G31KT CAVOK 25/M05 Q1008
YSSY 150315Z 32021G31KT CAVOK 25/M05 Q1008 FM0315 MOD/SEV TURB BLW 5000FT
YSSY 150300Z 31024KT CAVOK 25/M05 Q1009 FM0300 MOD/SEV TURB BLW 5000FT  
YSSY 150230Z 30021G31KT CAVOK 25/M06 Q1009 FM0230 MOD/SEV TURB BLW 5000FT   
YSSY 150230Z 30021G31KT CAVOK 25/M06 Q1009
YSSY 150230Z 30021G31KT CAVOK 25/M06 Q1009 FM0230 MOD/SEV TURB BLW 5000FT
YSSY 150200Z 30025G37KT CAVOK 24/M05 Q1010  
YSSY 150200Z 30025G37KT CAVOK 24/M05 Q1010
YSSY 150200Z 30025G37KT CAVOK 24/M05 Q1010 FM0200 MOD/SEV TURB BLW 5000FT
YSSY 150130Z 30026G36KT CAVOK 23/M07 Q1010 FM0130 MOD/SEV TURB BLW 5000FT   
YSSY 150130Z 30026G36KT CAVOK 23/M07 Q1010
YSSY 150130Z 30026G36KT CAVOK 23/M07 Q1010 FM0130 MOD/SEV TURB BLW 5000FT
YSSY 150105Z 31023G33KT CAVOK 23/M06 Q1011  
YSSY 150105Z 31023G33KT CAVOK 23/M06 Q1011
YSSY 150105Z 31023G33KT CAVOK 23/M06 Q1011 FM0105 MOD/SEV TURB BLW 5000FT
YSSY 150100Z 33022KT CAVOK 22/M06 Q1011 FM0100 MOD/SEV TURB BLW 5000FT  
YSSY 150030Z 31019KT CAVOK 21/M04 Q1011 FM0030 MOD/SEV TURB BLW 5000FT  
YSSY 150000Z 31019KT CAVOK 20/M03 Q1012 FM0000 MOD/SEV TURB BLW 5000FT  
YSSY 142330Z 32020KT CAVOK 19/M02 Q1012 FM2330 MOD/SEV TURB BLW 5000FT  
YSSY 142300Z 31016KT CAVOK 17/00 Q1013 FM0000 31020G30KT CAVOK FM2300 MOD/SEV TURB BLW 5000FT   
YSSY 142230Z 31013KT CAVOK 16/00 Q1013 FM0000 31020G30KT CAVOK FM2230 MOD/SEV TURB BLW 5000FT   
YSSY 142200Z 29012KT CAVOK 15/00 Q1013 FM0000 31020G30KT CAVOK FM2200 MOD/SEV TURB BLW 5000FT   
YSSY 142130Z 30013KT CAVOK 14/01 Q1013 FM0000 31020G30KT CAVOK FM2130 MOD/SEV TURB BLW 5000FT   
YSSY 142100Z 31014KT CAVOK 13/02 Q1013 FM2100 MOD/SEV TURB BLW 5000FT   
YSSY 142030Z 31014KT CAVOK 13/02 Q1013 FM2030 MOD/SEV TURB BLW 5000FT   
YSSY 142000Z 31012KT CAVOK 12/03 Q1013 FM2000 MOD/SEV TURB BLW 5000FT   
YSSY 141930Z 31010KT CAVOK 12/03 Q1013 FM1930 MOD/SEV TURB BLW 5000FT